sensor_id;sensor_type;location;lat;lon;timestamp;temperature;humidity
8114;DHT22;4099;52.684;9.918;2022-08-21T00:04:29;13.90;99.90
8114;DHT22;4099;52.684;9.918;2022-08-21T00:09:31;13.80;99.90
8114;DHT22;4099;52.684;9.918;2022-08-21T00:14:33;13.80;99.90
8114;DHT22;4099;52.684;9.918;2022-08-21T00:19:36;13.70;99.90
8114;DHT22;4099;52.684;9.918;2022-08-21T00:24:38;13.90;99.90
8114;DHT22;4099;52.684;9.918;2022-08-21T00:29:40;13.90;99.90
8114;DHT22;4099;52.684;9.918;2022-08-21T00:34:43;13.70;99.90
8114;DHT22;4099;52.684;9.918;2022-08-21T00:39:45;13.60;99.90
8114;DHT22;4099;52.684;9.918;2022-08-21T00:44:49;13.50;99.90
8114;DHT22;4099;52.684;9.918;2022-08-21T00:49:52;13.50;99.90
8114;DHT22;4099;52.684;9.918;2022-08-21T00:54:55;13.50;99.90
8114;DHT22;4099;52.684;9.918;2022-08-21T01:00:00;13.60;99.90
8114;DHT22;4099;52.684;9.918;2022-08-21T01:05:05;13.10;99.90
8114;DHT22;4099;52.684;9.918;2022-08-21T01:10:08;12.80;99.90
8114;DHT22;4099;52.684;9.918;2022-08-21T01:15:10;13.10;99.90
8114;DHT22;4099;52.684;9.918;2022-08-21T01:20:17;13.50;99.90
8114;DHT22;4099;52.684;9.918;2022-08-21T01:25:20;13.40;99.90
8114;DHT22;4099;52.684;9.918;2022-08-21T01:30:26;12.90;99.90
8114;DHT22;4099;52.684;9.918;2022-08-21T01:35:28;12.80;99.90
8114;DHT22;4099;52.684;9.918;2022-08-21T01:40:31;12.60;99.90
8114;DHT22;4099;52.684;9.918;2022-08-21T01:45:33;12.40;99.90
8114;DHT22;4099;52.684;9.918;2022-08-21T01:50:35;12.60;99.90
8114;DHT22;4099;52.684;9.918;2022-08-21T01:55:38;12.70;99.90
8114;DHT22;4099;52.684;9.918;2022-08-21T02:00:40;13.00;99.90
8114;DHT22;4099;52.684;9.918;2022-08-21T02:05:42;13.10;99.90
8114;DHT22;4099;52.684;9.918;2022-08-21T02:10:45;12.80;99.90
8114;DHT22;4099;52.684;9.918;2022-08-21T02:15:48;12.60;99.90
8114;DHT22;4099;52.684;9.918;2022-08-21T02:20:50;12.60;99.90
8114;DHT22;4099;52.684;9.918;2022-08-21T02:25:53;12.40;99.90
8114;DHT22;4099;52.684;9.918;2022-08-21T02:30:56;12.20;99.90
8114;DHT22;4099;52.684;9.918;2022-08-21T02:35:58;12.20;99.90
8114;DHT22;4099;52.684;9.918;2022-08-21T02:41:01;12.40;99.90
8114;DHT22;4099;52.684;9.918;2022-08-21T02:46:04;12.30;99.90
8114;DHT22;4099;52.684;9.918;2022-08-21T02:51:08;12.00;99.90
8114;DHT22;4099;52.684;9.918;2022-08-21T02:56:14;12.00;99.90
8114;DHT22;4099;52.684;9.918;2022-08-21T03:01:16;11.90;99.90
8114;DHT22;4099;52.684;9.918;2022-08-21T03:06:19;11.90;99.90
8114;DHT22;4099;52.684;9.918;2022-08-21T03:11:23;11.80;99.90
8114;DHT22;4099;52.684;9.918;2022-08-21T03:16:24;11.90;99.90
8114;DHT22;4099;52.684;9.918;2022-08-21T03:21:26;12.20;99.90
8114;DHT22;4099;52.684;9.918;2022-08-21T03:26:30;12.20;99.90
8114;DHT22;4099;52.684;9.918;2022-08-21T03:31:32;12.00;99.90
8114;DHT22;4099;52.684;9.918;2022-08-21T03:36:34;12.20;99.90
8114;DHT22;4099;52.684;9.918;2022-08-21T03:41:37;12.40;99.90
8114;DHT22;4099;52.684;9.918;2022-08-21T03:46:39;12.20;99.90
8114;DHT22;4099;52.684;9.918;2022-08-21T03:51:41;12.40;99.90
8114;DHT22;4099;52.684;9.918;2022-08-21T03:56:44;12.50;99.90
8114;DHT22;4099;52.684;9.918;2022-08-21T04:01:52;12.30;99.90
8114;DHT22;4099;52.684;9.918;2022-08-21T04:06:54;12.40;99.90
8114;DHT22;4099;52.684;9.918;2022-08-21T04:12:00;12.40;99.90
8114;DHT22;4099;52.684;9.918;2022-08-21T04:17:02;12.50;99.90
8114;DHT22;4099;52.684;9.918;2022-08-21T04:22:04;12.40;99.90
8114;DHT22;4099;52.684;9.918;2022-08-21T04:27:07;12.10;99.90
8114;DHT22;4099;52.684;9.918;2022-08-21T04:32:09;12.40;99.90
8114;DHT22;4099;52.684;9.918;2022-08-21T04:37:11;12.80;99.90
8114;DHT22;4099;52.684;9.918;2022-08-21T04:42:14;13.00;99.90
8114;DHT22;4099;52.684;9.918;2022-08-21T04:47:17;12.80;99.90
8114;DHT22;4099;52.684;9.918;2022-08-21T04:52:21;12.70;99.90
8114;DHT22;4099;52.684;9.918;2022-08-21T04:57:25;12.70;99.90
8114;DHT22;4099;52.684;9.918;2022-08-21T05:02:27;12.60;99.90
8114;DHT22;4099;52.684;9.918;2022-08-21T05:07:29;12.60;99.90
8114;DHT22;4099;52.684;9.918;2022-08-21T05:12:34;12.60;99.90
8114;DHT22;4099;52.684;9.918;2022-08-21T05:17:36;12.70;99.90
8114;DHT22;4099;52.684;9.918;2022-08-21T05:22:37;12.90;99.90
8114;DHT22;4099;52.684;9.918;2022-08-21T05:27:41;13.10;99.90
8114;DHT22;4099;52.684;9.918;2022-08-21T05:32:42;13.40;99.90
8114;DHT22;4099;52.684;9.918;2022-08-21T05:37:44;13.60;99.90
8114;DHT22;4099;52.684;9.918;2022-08-21T05:42:47;13.90;99.90
8114;DHT22;4099;52.684;9.918;2022-08-21T05:47:49;14.40;99.90
8114;DHT22;4099;52.684;9.918;2022-08-21T05:52:51;14.20;99.90
8114;DHT22;4099;52.684;9.918;2022-08-21T05:57:54;14.30;99.90
8114;DHT22;4099;52.684;9.918;2022-08-21T06:02:56;14.60;99.90
8114;DHT22;4099;52.684;9.918;2022-08-21T06:07:57;14.90;99.90
8114;DHT22;4099;52.684;9.918;2022-08-21T06:13:00;15.10;99.90
8114;DHT22;4099;52.684;9.918;2022-08-21T06:18:02;15.30;99.90
8114;DHT22;4099;52.684;9.918;2022-08-21T06:23:04;15.50;99.90
8114;DHT22;4099;52.684;9.918;2022-08-21T06:28:09;15.90;99.90
8114;DHT22;4099;52.684;9.918;2022-08-21T06:33:11;16.10;99.90
8114;DHT22;4099;52.684;9.918;2022-08-21T06:38:12;16.40;99.90
8114;DHT22;4099;52.684;9.918;2022-08-21T06:43:16;16.70;99.90
8114;DHT22;4099;52.684;9.918;2022-08-21T06:48:18;16.90;99.90
8114;DHT22;4099;52.684;9.918;2022-08-21T06:53:20;17.00;99.90
8114;DHT22;4099;52.684;9.918;2022-08-21T06:58:23;17.30;99.90
8114;DHT22;4099;52.684;9.918;2022-08-21T07:03:26;17.60;99.90
8114;DHT22;4099;52.684;9.918;2022-08-21T07:08:29;17.90;99.90
8114;DHT22;4099;52.684;9.918;2022-08-21T07:13:32;18.10;99.90
8114;DHT22;4099;52.684;9.918;2022-08-21T07:18:33;18.20;99.90
8114;DHT22;4099;52.684;9.918;2022-08-21T07:23:37;18.50;99.90
8114;DHT22;4099;52.684;9.918;2022-08-21T07:28:41;18.90;99.90
8114;DHT22;4099;52.684;9.918;2022-08-21T07:33:43;19.10;43.40
8114;DHT22;4099;52.684;9.918;2022-08-21T07:38:45;19.10;46.30
8114;DHT22;4099;52.684;9.918;2022-08-21T07:43:48;19.20;83.60
8114;DHT22;4099;52.684;9.918;2022-08-21T07:48:50;19.70;1.00
8114;DHT22;4099;52.684;9.918;2022-08-21T07:53:54;19.90;1.00
8114;DHT22;4099;52.684;9.918;2022-08-21T07:58:58;20.40;1.00
8114;DHT22;4099;52.684;9.918;2022-08-21T08:03:59;20.70;1.00
8114;DHT22;4099;52.684;9.918;2022-08-21T08:09:01;21.10;1.00
8114;DHT22;4099;52.684;9.918;2022-08-21T08:14:05;21.30;1.00
8114;DHT22;4099;52.684;9.918;2022-08-21T08:19:07;21.50;1.00
8114;DHT22;4099;52.684;9.918;2022-08-21T08:24:08;21.80;1.00
8114;DHT22;4099;52.684;9.918;2022-08-21T08:29:11;21.80;1.00
8114;DHT22;4099;52.684;9.918;2022-08-21T08:34:13;22.10;1.00
8114;DHT22;4099;52.684;9.918;2022-08-21T08:39:15;22.40;1.00
8114;DHT22;4099;52.684;9.918;2022-08-21T08:44:18;22.30;1.00
8114;DHT22;4099;52.684;9.918;2022-08-21T08:49:24;22.60;1.00
8114;DHT22;4099;52.684;9.918;2022-08-21T08:54:30;22.90;99.90
8114;DHT22;4099;52.684;9.918;2022-08-21T08:59:38;23.10;1.00
8114;DHT22;4099;52.684;9.918;2022-08-21T09:04:41;23.30;1.00
8114;DHT22;4099;52.684;9.918;2022-08-21T09:09:55;23.40;99.90
8114;DHT22;4099;52.684;9.918;2022-08-21T09:15:12;23.50;99.90
8114;DHT22;4099;52.684;9.918;2022-08-21T09:20:28;23.70;99.90
8114;DHT22;4099;52.684;9.918;2022-08-21T09:25:34;24.10;1.00
8114;DHT22;4099;52.684;9.918;2022-08-21T09:30:42;24.00;99.90
8114;DHT22;4099;52.684;9.918;2022-08-21T09:35:52;24.20;1.00
8114;DHT22;4099;52.684;9.918;2022-08-21T09:40:58;24.20;1.00
8114;DHT22;4099;52.684;9.918;2022-08-21T09:46:05;24.20;1.00
8114;DHT22;4099;52.684;9.918;2022-08-21T09:51:10;24.40;1.00
8114;DHT22;4099;52.684;9.918;2022-08-21T09:56:27;24.30;1.00
8114;DHT22;4099;52.684;9.918;2022-08-21T10:01:50;24.60;1.00
8114;DHT22;4099;52.684;9.918;2022-08-21T10:06:52;24.70;1.00
8114;DHT22;4099;52.684;9.918;2022-08-21T10:12:10;24.80;1.00
8114;DHT22;4099;52.684;9.918;2022-08-21T10:17:20;24.90;1.00
8114;DHT22;4099;52.684;9.918;2022-08-21T10:22:34;25.40;1.00
8114;DHT22;4099;52.684;9.918;2022-08-21T10:27:44;25.40;1.00
8114;DHT22;4099;52.684;9.918;2022-08-21T10:33:02;25.60;1.00
8114;DHT22;4099;52.684;9.918;2022-08-21T10:38:35;25.50;1.00
8114;DHT22;4099;52.684;9.918;2022-08-21T10:43:49;25.70;1.00
8114;DHT22;4099;52.684;9.918;2022-08-21T10:48:57;26.00;1.00
8114;DHT22;4099;52.684;9.918;2022-08-21T10:54:05;26.20;1.00
8114;DHT22;4099;52.684;9.918;2022-08-21T10:59:23;26.00;1.00
8114;DHT22;4099;52.684;9.918;2022-08-21T11:04:32;26.40;1.00
8114;DHT22;4099;52.684;9.918;2022-08-21T11:09:35;26.70;1.00
8114;DHT22;4099;52.684;9.918;2022-08-21T11:14:52;26.10;1.00
8114;DHT22;4099;52.684;9.918;2022-08-21T11:20:03;26.20;1.00
8114;DHT22;4099;52.684;9.918;2022-08-21T11:25:11;26.60;1.00
8114;DHT22;4099;52.684;9.918;2022-08-21T11:30:15;27.20;1.00
8114;DHT22;4099;52.684;9.918;2022-08-21T11:35:30;27.90;1.00
8114;DHT22;4099;52.684;9.918;2022-08-21T11:40:44;27.90;1.00
8114;DHT22;4099;52.684;9.918;2022-08-21T11:45:51;27.60;1.00
8114;DHT22;4099;52.684;9.918;2022-08-21T11:50:56;27.30;1.00
8114;DHT22;4099;52.684;9.918;2022-08-21T11:56:03;27.60;1.00
8114;DHT22;4099;52.684;9.918;2022-08-21T12:01:10;27.70;1.00
8114;DHT22;4099;52.684;9.918;2022-08-21T12:06:14;28.20;1.00
8114;DHT22;4099;52.684;9.918;2022-08-21T12:11:24;28.50;1.00
8114;DHT22;4099;52.684;9.918;2022-08-21T12:16:31;28.80;1.00
8114;DHT22;4099;52.684;9.918;2022-08-21T12:21:48;28.70;1.00
8114;DHT22;4099;52.684;9.918;2022-08-21T12:26:52;28.90;1.00
8114;DHT22;4099;52.684;9.918;2022-08-21T12:31:57;28.80;1.00
8114;DHT22;4099;52.684;9.918;2022-08-21T12:37:04;28.90;1.00
8114;DHT22;4099;52.684;9.918;2022-08-21T12:42:16;30.30;1.00
8114;DHT22;4099;52.684;9.918;2022-08-21T12:47:25;30.70;1.00
8114;DHT22;4099;52.684;9.918;2022-08-21T12:52:33;31.20;1.00
8114;DHT22;4099;52.684;9.918;2022-08-21T12:57:36;31.80;1.00
8114;DHT22;4099;52.684;9.918;2022-08-21T13:02:43;31.70;1.00
8114;DHT22;4099;52.684;9.918;2022-08-21T13:07:49;31.70;1.00
8114;DHT22;4099;52.684;9.918;2022-08-21T13:12:54;32.40;1.00
8114;DHT22;4099;52.684;9.918;2022-08-21T13:17:57;33.50;1.00
8114;DHT22;4099;52.684;9.918;2022-08-21T13:23:23;33.50;1.00
8114;DHT22;4099;52.684;9.918;2022-08-21T13:28:33;33.00;1.00
8114;DHT22;4099;52.684;9.918;2022-08-21T13:33:38;32.30;1.00
8114;DHT22;4099;52.684;9.918;2022-08-21T13:38:44;31.50;1.00
8114;DHT22;4099;52.684;9.918;2022-08-21T13:43:51;31.20;1.00
8114;DHT22;4099;52.684;9.918;2022-08-21T13:48:58;30.00;1.00
8114;DHT22;4099;52.684;9.918;2022-08-21T13:54:14;29.70;1.00
8114;DHT22;4099;52.684;9.918;2022-08-21T13:59:24;29.70;1.00
8114;DHT22;4099;52.684;9.918;2022-08-21T14:04:33;30.80;1.00
8114;DHT22;4099;52.684;9.918;2022-08-21T14:09:42;31.80;1.00
8114;DHT22;4099;52.684;9.918;2022-08-21T14:14:45;31.60;1.00
8114;DHT22;4099;52.684;9.918;2022-08-21T14:19:47;30.70;1.00
8114;DHT22;4099;52.684;9.918;2022-08-21T14:24:59;30.80;1.00
8114;DHT22;4099;52.684;9.918;2022-08-21T14:30:11;30.00;1.00
8114;DHT22;4099;52.684;9.918;2022-08-21T14:35:14;29.60;1.00
8114;DHT22;4099;52.684;9.918;2022-08-21T14:40:21;29.60;1.00
8114;DHT22;4099;52.684;9.918;2022-08-21T14:45:26;30.00;1.00
8114;DHT22;4099;52.684;9.918;2022-08-21T14:50:29;29.80;1.00
8114;DHT22;4099;52.684;9.918;2022-08-21T14:55:33;29.10;1.00
8114;DHT22;4099;52.684;9.918;2022-08-21T15:00:57;28.70;1.00
8114;DHT22;4099;52.684;9.918;2022-08-21T15:06:01;28.10;1.00
8114;DHT22;4099;52.684;9.918;2022-08-21T15:11:06;27.60;1.00
8114;DHT22;4099;52.684;9.918;2022-08-21T15:16:09;26.90;1.00
8114;DHT22;4099;52.684;9.918;2022-08-21T15:21:12;26.70;1.00
8114;DHT22;4099;52.684;9.918;2022-08-21T15:26:22;26.80;1.00
8114;DHT22;4099;52.684;9.918;2022-08-21T15:31:24;26.80;1.00
8114;DHT22;4099;52.684;9.918;2022-08-21T15:36:27;26.60;1.00
8114;DHT22;4099;52.684;9.918;2022-08-21T15:41:31;26.20;1.00
8114;DHT22;4099;52.684;9.918;2022-08-21T15:46:33;25.70;1.00
8114;DHT22;4099;52.684;9.918;2022-08-21T15:51:35;25.60;1.00
8114;DHT22;4099;52.684;9.918;2022-08-21T15:56:42;26.00;1.00
8114;DHT22;4099;52.684;9.918;2022-08-21T16:01:47;26.10;1.00
8114;DHT22;4099;52.684;9.918;2022-08-21T16:06:50;26.00;1.00
8114;DHT22;4099;52.684;9.918;2022-08-21T16:11:54;25.70;1.00
8114;DHT22;4099;52.684;9.918;2022-08-21T16:16:57;25.30;1.00
8114;DHT22;4099;52.684;9.918;2022-08-21T16:22:00;25.00;1.00
8114;DHT22;4099;52.684;9.918;2022-08-21T16:27:04;24.90;1.00
8114;DHT22;4099;52.684;9.918;2022-08-21T16:32:07;24.90;1.00
8114;DHT22;4099;52.684;9.918;2022-08-21T16:37:10;24.80;1.00
8114;DHT22;4099;52.684;9.918;2022-08-21T16:42:18;24.80;1.00
8114;DHT22;4099;52.684;9.918;2022-08-21T16:47:22;24.80;1.00
8114;DHT22;4099;52.684;9.918;2022-08-21T16:52:25;24.60;1.00
8114;DHT22;4099;52.684;9.918;2022-08-21T16:57:28;24.40;1.00
8114;DHT22;4099;52.684;9.918;2022-08-21T17:02:36;24.20;1.00
8114;DHT22;4099;52.684;9.918;2022-08-21T17:07:39;24.00;1.00
8114;DHT22;4099;52.684;9.918;2022-08-21T17:12:47;23.90;1.00
8114;DHT22;4099;52.684;9.918;2022-08-21T17:17:55;23.70;1.00
8114;DHT22;4099;52.684;9.918;2022-08-21T17:22:58;23.50;1.00
8114;DHT22;4099;52.684;9.918;2022-08-21T17:28:02;23.30;1.00
8114;DHT22;4099;52.684;9.918;2022-08-21T17:33:05;23.10;1.00
8114;DHT22;4099;52.684;9.918;2022-08-21T17:38:08;22.80;1.00
8114;DHT22;4099;52.684;9.918;2022-08-21T17:43:12;22.60;1.00
8114;DHT22;4099;52.684;9.918;2022-08-21T17:48:15;22.30;1.00
8114;DHT22;4099;52.684;9.918;2022-08-21T17:53:18;21.90;1.00
8114;DHT22;4099;52.684;9.918;2022-08-21T17:58:22;21.50;1.00
8114;DHT22;4099;52.684;9.918;2022-08-21T18:03:24;21.20;1.00
8114;DHT22;4099;52.684;9.918;2022-08-21T18:08:26;21.00;1.00
8114;DHT22;4099;52.684;9.918;2022-08-21T18:13:34;20.80;1.00
8114;DHT22;4099;52.684;9.918;2022-08-21T18:18:40;20.50;1.00
8114;DHT22;4099;52.684;9.918;2022-08-21T18:23:43;20.20;1.00
8114;DHT22;4099;52.684;9.918;2022-08-21T18:28:47;20.00;1.00
8114;DHT22;4099;52.684;9.918;2022-08-21T18:33:49;19.80;1.00
8114;DHT22;4099;52.684;9.918;2022-08-21T18:38:52;19.70;1.00
8114;DHT22;4099;52.684;9.918;2022-08-21T18:43:56;19.70;1.00
8114;DHT22;4099;52.684;9.918;2022-08-21T18:48:58;19.80;1.00
8114;DHT22;4099;52.684;9.918;2022-08-21T18:54:01;19.60;1.00
8114;DHT22;4099;52.684;9.918;2022-08-21T18:59:05;19.50;1.00
8114;DHT22;4099;52.684;9.918;2022-08-21T19:04:08;19.20;1.00
8114;DHT22;4099;52.684;9.918;2022-08-21T19:09:13;18.90;1.00
8114;DHT22;4099;52.684;9.918;2022-08-21T19:14:18;18.70;1.00
8114;DHT22;4099;52.684;9.918;2022-08-21T19:19:20;18.50;1.00
8114;DHT22;4099;52.684;9.918;2022-08-21T19:24:23;18.40;1.00
8114;DHT22;4099;52.684;9.918;2022-08-21T19:29:26;18.30;1.00
8114;DHT22;4099;52.684;9.918;2022-08-21T19:34:29;18.10;1.00
8114;DHT22;4099;52.684;9.918;2022-08-21T19:39:32;18.10;1.00
8114;DHT22;4099;52.684;9.918;2022-08-21T19:44:40;17.90;1.00
8114;DHT22;4099;52.684;9.918;2022-08-21T19:49:48;17.90;1.00
8114;DHT22;4099;52.684;9.918;2022-08-21T19:54:50;17.70;1.00
8114;DHT22;4099;52.684;9.918;2022-08-21T19:59:54;17.50;28.50
8114;DHT22;4099;52.684;9.918;2022-08-21T20:04:56;17.30;49.50
8114;DHT22;4099;52.684;9.918;2022-08-21T20:09:59;17.40;21.20
8114;DHT22;4099;52.684;9.918;2022-08-21T20:15:04;17.10;92.40
8114;DHT22;4099;52.684;9.918;2022-08-21T20:20:07;17.10;41.30
8114;DHT22;4099;52.684;9.918;2022-08-21T20:25:09;16.90;39.80
8114;DHT22;4099;52.684;9.918;2022-08-21T20:30:14;16.70;99.90
8114;DHT22;4099;52.684;9.918;2022-08-21T20:35:16;16.60;99.90
8114;DHT22;4099;52.684;9.918;2022-08-21T20:40:19;17.00;54.20
8114;DHT22;4099;52.684;9.918;2022-08-21T20:45:25;17.10;90.90
8114;DHT22;4099;52.684;9.918;2022-08-21T20:50:29;16.60;99.90
8114;DHT22;4099;52.684;9.918;2022-08-21T20:55:34;16.40;99.90
8114;DHT22;4099;52.684;9.918;2022-08-21T21:00:41;16.40;89.50
8114;DHT22;4099;52.684;9.918;2022-08-21T21:05:49;16.50;27.10
8114;DHT22;4099;52.684;9.918;2022-08-21T21:10:55;16.10;99.90
8114;DHT22;4099;52.684;9.918;2022-08-21T21:16:03;15.90;99.90
8114;DHT22;4099;52.684;9.918;2022-08-21T21:21:10;15.70;99.90
8114;DHT22;4099;52.684;9.918;2022-08-21T21:26:19;15.70;99.90
8114;DHT22;4099;52.684;9.918;2022-08-21T21:31:23;15.50;99.90
8114;DHT22;4099;52.684;9.918;2022-08-21T21:36:31;15.40;99.90
8114;DHT22;4099;52.684;9.918;2022-08-21T21:41:42;15.40;99.90
8114;DHT22;4099;52.684;9.918;2022-08-21T21:46:54;15.50;99.90
8114;DHT22;4099;52.684;9.918;2022-08-21T21:52:13;15.50;99.90
8114;DHT22;4099;52.684;9.918;2022-08-21T21:57:36;15.30;99.90
8114;DHT22;4099;52.684;9.918;2022-08-21T22:02:48;15.10;99.90
8114;DHT22;4099;52.684;9.918;2022-08-21T22:07:56;15.00;99.90
8114;DHT22;4099;52.684;9.918;2022-08-21T22:13:08;15.00;99.90
8114;DHT22;4099;52.684;9.918;2022-08-21T22:18:17;15.00;99.90
8114;DHT22;4099;52.684;9.918;2022-08-21T22:23:24;15.00;99.90
8114;DHT22;4099;52.684;9.918;2022-08-21T22:28:29;14.90;99.90
8114;DHT22;4099;52.684;9.918;2022-08-21T22:33:35;14.90;99.90
8114;DHT22;4099;52.684;9.918;2022-08-21T22:38:37;14.90;99.90
8114;DHT22;4099;52.684;9.918;2022-08-21T22:43:54;14.90;99.90
8114;DHT22;4099;52.684;9.918;2022-08-21T22:49:02;15.00;99.90
8114;DHT22;4099;52.684;9.918;2022-08-21T22:54:07;15.00;99.90
8114;DHT22;4099;52.684;9.918;2022-08-21T22:59:22;14.80;99.90
8114;DHT22;4099;52.684;9.918;2022-08-21T23:04:28;14.70;99.90
8114;DHT22;4099;52.684;9.918;2022-08-21T23:09:34;14.60;99.90
8114;DHT22;4099;52.684;9.918;2022-08-21T23:14:37;14.50;99.90
8114;DHT22;4099;52.684;9.918;2022-08-21T23:19:50;14.50;99.90
8114;DHT22;4099;52.684;9.918;2022-08-21T23:25:04;14.50;99.90
8114;DHT22;4099;52.684;9.918;2022-08-21T23:30:15;14.40;99.90
8114;DHT22;4099;52.684;9.918;2022-08-21T23:35:23;14.30;99.90
8114;DHT22;4099;52.684;9.918;2022-08-21T23:40:50;14.20;99.90
8114;DHT22;4099;52.684;9.918;2022-08-21T23:46:02;14.10;99.90
8114;DHT22;4099;52.684;9.918;2022-08-21T23:51:11;14.00;99.90
8114;DHT22;4099;52.684;9.918;2022-08-21T23:56:21;13.90;99.90
